Time;durP1;ratioP1;P1;durP2;ratioP2;P2;SDS_P1;SDS_P2;PMS_P1;PMS_P2;Temp;Humidity;BMP_temperature;BMP_pressure;BME280_temperature;BME280_humidity;BME280_pressure;Samples;Min_cycle;Max_cycle;Signal;HPM_P1;HPM_P2
2021/01/28 00:00:26;;;;;;;3.63;2.67;;;1.80;99.90;;;;;;5094453;28;21056;-79
2021/01/28 00:02:53;;;;;;;3.20;2.77;;;1.80;99.90;;;;;;5094790;28;20794;-79
2021/01/28 00:05:21;;;;;;;3.20;2.43;;;1.80;99.90;;;;;;5094747;28;20422;-79
2021/01/28 00:07:47;;;;;;;3.60;2.60;;;1.80;99.90;;;;;;5094615;28;20477;-78
2021/01/28 00:10:15;;;;;;;4.40;2.63;;;1.80;99.90;;;;;;5093740;28;20497;-78
2021/01/28 00:12:41;;;;;;;2.60;2.40;;;1.90;99.90;;;;;;5094609;28;20439;-79
2021/01/28 00:15:09;;;;;;;2.87;2.60;;;1.90;99.90;;;;;;5094241;28;20460;-78
2021/01/28 00:17:35;;;;;;;3.47;2.30;;;1.90;99.90;;;;;;5094553;28;20447;-78
2021/01/28 00:20:10;;;;;;;2.80;2.50;;;1.90;99.90;;;;;;5094382;28;20468;-79
2021/01/28 00:22:36;;;;;;;3.13;2.53;;;2.00;99.90;;;;;;5094511;28;20451;-78
2021/01/28 00:25:03;;;;;;;4.07;2.83;;;2.00;99.90;;;;;;5094028;28;20807;-79
2021/01/28 00:27:29;;;;;;;5.13;3.17;;;1.90;99.90;;;;;;5093799;28;20495;-78
2021/01/28 00:29:55;;;;;;;4.93;3.30;;;1.90;99.90;;;;;;5094075;28;20459;-78
2021/01/28 00:32:22;;;;;;;4.63;3.40;;;1.90;99.90;;;;;;5093950;28;20447;-79
2021/01/28 00:34:48;;;;;;;5.93;3.57;;;1.90;99.90;;;;;;5094219;28;20426;-78
2021/01/28 00:37:15;;;;;;;6.43;4.43;;;1.90;99.90;;;;;;5093904;28;20780;-78
2021/01/28 00:39:41;;;;;;;6.03;3.70;;;1.90;99.90;;;;;;5094047;28;20468;-78
2021/01/28 00:42:07;;;;;;;6.27;3.80;;;1.90;99.90;;;;;;5094108;28;20518;-80
2021/01/28 00:44:34;;;;;;;4.83;3.30;;;1.90;99.90;;;;;;5094019;28;20455;-79
2021/01/28 00:47:00;;;;;;;5.80;3.13;;;1.90;99.90;;;;;;5093577;28;20846;-79
2021/01/28 00:49:26;;;;;;;5.23;3.20;;;1.80;99.90;;;;;;5093908;28;20475;-79
2021/01/28 00:51:52;;;;;;;5.33;3.20;;;1.80;99.90;;;;;;5093889;28;20438;-79
2021/01/28 00:54:19;;;;;;;5.30;3.70;;;1.90;99.90;;;;;;5093785;28;21007;-79
2021/01/28 00:56:45;;;;;;;4.10;3.43;;;1.90;99.90;;;;;;5093834;28;20443;-79
2021/01/28 00:59:12;;;;;;;4.47;3.27;;;1.80;99.90;;;;;;5093414;28;20460;-78
2021/01/28 01:01:38;;;;;;;3.60;3.10;;;1.90;99.90;;;;;;5093782;28;20506;-78
2021/01/28 01:04:04;;;;;;;3.40;2.70;;;1.90;99.90;;;;;;5093776;28;20452;-78
2021/01/28 01:06:30;;;;;;;5.77;3.43;;;1.90;99.90;;;;;;5093640;28;20433;-78
2021/01/28 01:08:56;;;;;;;5.20;3.63;;;1.80;99.90;;;;;;5093618;28;20856;-78
2021/01/28 01:11:23;;;;;;;4.90;3.53;;;1.80;99.90;;;;;;5093372;28;20455;-79
2021/01/28 01:13:50;;;;;;;4.63;3.87;;;1.80;99.90;;;;;;5093313;28;20426;-79
2021/01/28 01:16:17;;;;;;;4.13;3.50;;;1.80;99.90;;;;;;5093583;28;20426;-79
2021/01/28 01:18:44;;;;;;;6.27;3.30;;;1.80;99.90;;;;;;5093513;28;20426;-79
2021/01/28 01:21:10;;;;;;;8.83;3.53;;;1.80;99.90;;;;;;5093383;28;20436;-79
2021/01/28 01:23:36;;;;;;;4.90;3.80;;;1.80;99.90;;;;;;5093538;28;20426;-79
2021/01/28 01:26:03;;;;;;;3.80;3.23;;;1.80;99.90;;;;;;5093004;28;20991;-79
2021/01/28 01:28:30;;;;;;;5.63;3.80;;;1.80;99.90;;;;;;5093465;28;20439;-79
2021/01/28 01:30:57;;;;;;;7.60;4.50;;;1.90;99.90;;;;;;5093419;28;20459;-79
2021/01/28 01:33:24;;;;;;;7.20;4.40;;;1.90;99.90;;;;;;5093132;28;20485;-79
2021/01/28 01:35:50;;;;;;;4.83;3.60;;;1.90;99.90;;;;;;5093399;28;20444;-79
2021/01/28 01:38:17;;;;;;;8.07;3.70;;;1.90;99.90;;;;;;5093350;28;20444;-79
2021/01/28 01:40:46;;;;;;;6.03;3.53;;;1.80;99.90;;;;;;5093276;28;20438;-79
2021/01/28 01:43:14;;;;;;;4.50;3.73;;;1.90;99.90;;;;;;5093291;28;20426;-79
2021/01/28 01:45:44;;;;;;;10.60;4.57;;;2.00;99.90;;;;;;5093303;28;20452;-79
2021/01/28 01:48:15;;;;;;;7.67;4.30;;;2.00;99.90;;;;;;5092859;28;20479;-79
2021/01/28 01:50:47;;;;;;;5.10;3.80;;;1.90;99.90;;;;;;5093236;28;20512;-79
2021/01/28 01:53:17;;;;;;;5.70;3.77;;;2.00;99.90;;;;;;5093122;28;20428;-80
2021/01/28 01:55:48;;;;;;;6.30;4.30;;;1.90;99.90;;;;;;5093237;28;20440;-80
2021/01/28 01:58:21;;;;;;;5.03;3.67;;;1.90;99.90;;;;;;5092998;28;20462;-80
2021/01/28 02:00:48;;;;;;;4.53;3.30;;;1.90;99.90;;;;;;5092866;28;20493;-80
2021/01/28 02:03:14;;;;;;;5.07;3.63;;;1.90;99.90;;;;;;5093109;28;20423;-80
2021/01/28 02:05:43;;;;;;;3.77;3.30;;;1.90;99.90;;;;;;5093144;28;20414;-80
2021/01/28 02:08:11;;;;;;;7.93;4.10;;;1.90;99.90;;;;;;5092996;28;20476;-79
2021/01/28 02:10:38;;;;;;;5.10;3.00;;;1.90;99.90;;;;;;5092999;28;20517;-80
2021/01/28 02:13:04;;;;;;;2.80;2.60;;;1.90;99.90;;;;;;5093061;28;20445;-79
2021/01/28 02:15:31;;;;;;;5.20;3.47;;;2.00;99.90;;;;;;5093039;28;20452;-79
2021/01/28 02:18:00;;;;;;;3.30;2.87;;;2.00;99.90;;;;;;5092683;28;20921;-79
2021/01/28 02:20:49;;;;;;;4.50;2.60;;;2.00;99.90;;;;;;5092883;28;20446;-79
2021/01/28 02:23:28;;;;;;;3.27;2.70;;;2.00;99.90;;;;;;5092986;28;20432;-79
2021/01/28 02:25:56;;;;;;;4.53;3.37;;;2.00;99.90;;;;;;5092782;28;20483;-79
2021/01/28 02:28:22;;;;;;;3.50;3.20;;;2.00;99.90;;;;;;5092563;28;20490;-79
2021/01/28 02:30:53;;;;;;;4.37;2.80;;;2.10;99.90;;;;;;5092788;28;20454;-79
2021/01/28 02:33:41;;;;;;;2.87;2.30;;;2.10;99.90;;;;;;5093338;28;20807;-79
2021/01/28 02:36:08;;;;;;;4.67;2.80;;;2.10;99.90;;;;;;5096285;28;20957;-78
2021/01/28 02:38:34;;;;;;;2.20;1.97;;;2.10;99.90;;;;;;5096366;28;20422;-79
2021/01/28 02:41:02;;;;;;;2.83;2.53;;;2.20;99.90;;;;;;5096162;28;20447;-78
2021/01/28 02:43:29;;;;;;;3.67;2.40;;;2.20;99.90;;;;;;5096380;28;20423;-78
2021/01/28 02:46:05;;;;;;;4.40;2.70;;;2.20;99.90;;;;;;5096343;28;20459;-78
2021/01/28 02:48:31;;;;;;;4.23;3.40;;;2.20;99.90;;;;;;5096283;28;20450;-78
2021/01/28 02:50:57;;;;;;;4.70;2.83;;;2.20;99.90;;;;;;5096271;28;20455;-78
2021/01/28 02:53:23;;;;;;;3.30;2.33;;;2.10;99.90;;;;;;5096187;28;20456;-78
2021/01/28 02:55:50;;;;;;;4.43;3.23;;;2.10;99.90;;;;;;5096198;28;20430;-78
2021/01/28 02:58:17;;;;;;;4.07;2.80;;;2.10;99.90;;;;;;5096083;28;20448;-78
2021/01/28 03:00:43;;;;;;;4.90;3.40;;;2.10;99.90;;;;;;5095677;28;20979;-78
2021/01/28 03:03:13;;;;;;;4.73;3.50;;;2.00;99.90;;;;;;5095970;28;20418;-78
2021/01/28 03:05:39;;;;;;;5.40;4.17;;;2.10;99.90;;;;;;5095905;28;20418;-78
2021/01/28 03:08:05;;;;;;;5.50;3.87;;;2.00;99.90;;;;;;5095759;28;20476;-78
2021/01/28 03:10:32;;;;;;;4.73;4.00;;;2.10;99.90;;;;;;5095513;28;20472;-78
2021/01/28 03:12:58;;;;;;;7.50;3.63;;;2.10;99.90;;;;;;5095500;28;20814;-78
2021/01/28 03:15:28;;;;;;;5.47;3.70;;;2.10;99.90;;;;;;5095760;28;20429;-78
2021/01/28 03:17:54;;;;;;;4.40;3.50;;;2.10;99.90;;;;;;5095396;28;20993;-79
2021/01/28 03:20:22;;;;;;;4.30;3.30;;;2.10;99.90;;;;;;5095312;28;20954;-78
2021/01/28 03:22:48;;;;;;;5.17;3.50;;;2.20;99.90;;;;;;5095610;28;20449;-79
2021/01/28 03:25:16;;;;;;;6.30;3.43;;;2.10;99.90;;;;;;5095267;28;20444;-78
2021/01/28 03:27:42;;;;;;;3.40;2.87;;;2.10;99.90;;;;;;5094959;28;20855;-78
2021/01/28 03:30:12;;;;;;;3.20;2.80;;;2.10;99.90;;;;;;5095046;28;20441;-79
2021/01/28 03:32:39;;;;;;;3.40;2.70;;;2.10;99.90;;;;;;5095400;28;20444;-79
2021/01/28 03:35:07;;;;;;;3.90;2.70;;;2.20;99.90;;;;;;5095191;28;20452;-78
2021/01/28 03:37:34;;;;;;;4.03;2.43;;;2.20;99.90;;;;;;5095325;28;20510;-79
2021/01/28 03:40:00;;;;;;;3.40;2.90;;;2.20;99.90;;;;;;5094852;28;20980;-79
2021/01/28 03:42:26;;;;;;;4.63;3.30;;;2.20;99.90;;;;;;5094893;28;20950;-79
2021/01/28 03:44:53;;;;;;;6.83;3.60;;;2.20;99.90;;;;;;5094799;28;20939;-79
2021/01/28 03:47:19;;;;;;;6.53;4.20;;;2.20;99.90;;;;;;5094702;28;21017;-79
2021/01/28 03:49:47;;;;;;;6.13;4.07;;;2.20;99.90;;;;;;5095006;28;20472;-79
2021/01/28 03:52:13;;;;;;;6.87;4.17;;;2.30;99.90;;;;;;5094988;28;20456;-79
2021/01/28 03:54:39;;;;;;;9.00;5.17;;;2.30;99.90;;;;;;5094928;28;20455;-79
2021/01/28 03:57:07;;;;;;;7.87;5.10;;;2.30;99.90;;;;;;5094962;28;20423;-79
2021/01/28 03:59:33;;;;;;;8.17;5.30;;;2.30;99.90;;;;;;5094683;28;20452;-79
2021/01/28 04:02:00;;;;;;;9.70;5.83;;;2.30;99.90;;;;;;5094838;28;20447;-79
2021/01/28 04:04:26;;;;;;;12.03;5.73;;;2.40;99.90;;;;;;5094509;28;20414;-78
2021/01/28 04:06:53;;;;;;;10.80;5.70;;;2.40;99.90;;;;;;5094654;28;20452;-79
2021/01/28 04:09:19;;;;;;;12.37;6.30;;;2.30;99.90;;;;;;5094639;28;20439;-79
2021/01/28 04:11:46;;;;;;;9.83;6.00;;;2.30;99.90;;;;;;5094363;28;20953;-79
2021/01/28 04:14:12;;;;;;;9.60;5.80;;;2.30;99.90;;;;;;5094267;28;20451;-79
2021/01/28 04:16:39;;;;;;;11.87;6.93;;;2.30;99.90;;;;;;5094251;28;20951;-79
2021/01/28 04:19:05;;;;;;;13.13;7.30;;;2.20;99.90;;;;;;5094129;28;20974;-79
2021/01/28 04:21:31;;;;;;;12.40;6.40;;;2.20;99.90;;;;;;5094440;28;20446;-79
2021/01/28 04:23:58;;;;;;;11.13;6.50;;;2.10;99.90;;;;;;5094404;28;20456;-79
2021/01/28 04:26:25;;;;;;;10.90;6.37;;;2.10;99.90;;;;;;5093952;28;20450;-78
2021/01/28 04:28:52;;;;;;;10.27;6.50;;;2.10;99.90;;;;;;5093854;28;20458;-79
2021/01/28 04:31:18;;;;;;;13.77;8.23;;;2.10;99.90;;;;;;5094307;28;20818;-79
2021/01/28 04:33:45;;;;;;;11.53;6.67;;;2.20;99.90;;;;;;5094203;28;20449;-79
2021/01/28 04:36:11;;;;;;;16.40;7.83;;;2.20;99.90;;;;;;5093932;28;20962;-78
2021/01/28 04:38:38;;;;;;;9.90;6.50;;;2.20;99.90;;;;;;5093783;28;20419;-79
2021/01/28 04:41:11;;;;;;;9.90;6.40;;;2.10;99.90;;;;;;5093773;28;20815;-78
2021/01/28 04:43:37;;;;;;;11.33;6.40;;;2.10;99.90;;;;;;5094131;28;20410;-79
2021/01/28 04:46:06;;;;;;;11.63;6.17;;;2.20;99.90;;;;;;5094005;28;20419;-78
2021/01/28 04:48:34;;;;;;;12.30;7.33;;;2.20;99.90;;;;;;5093786;28;20458;-79
2021/01/28 04:51:02;;;;;;;10.37;6.23;;;2.20;99.90;;;;;;5093946;28;20419;-78
2021/01/28 04:53:34;;;;;;;9.33;5.80;;;2.10;99.90;;;;;;5093897;28;20509;-79
2021/01/28 04:56:04;;;;;;;9.00;5.83;;;2.10;99.90;;;;;;5093552;28;20432;-78
2021/01/28 04:58:31;;;;;;;9.60;6.00;;;2.10;99.90;;;;;;5093853;28;20440;-78
2021/01/28 05:00:57;;;;;;;14.30;5.93;;;2.20;99.90;;;;;;5093699;28;20460;-78
2021/01/28 05:03:27;;;;;;;11.67;6.50;;;2.10;99.90;;;;;;5093769;28;20456;-79
2021/01/28 05:05:56;;;;;;;10.97;6.17;;;2.20;99.90;;;;;;5093752;28;20439;-78
2021/01/28 05:08:22;;;;;;;9.97;5.63;;;2.20;99.90;;;;;;5093342;28;20842;-79
2021/01/28 05:10:51;;;;;;;9.67;6.33;;;2.20;99.90;;;;;;5093606;28;20450;-79
2021/01/28 05:13:30;;;;;;;11.43;5.60;;;2.20;99.90;;;;;;5093338;28;20950;-78
2021/01/28 05:15:59;;;;;;;10.03;6.50;;;2.10;99.90;;;;;;5093662;28;20442;-79
2021/01/28 05:18:32;;;;;;;9.67;5.83;;;2.20;99.90;;;;;;5093621;28;20438;-78
2021/01/28 05:21:11;;;;;;;8.43;5.60;;;2.10;99.90;;;;;;5093277;28;20966;-79
2021/01/28 05:23:40;;;;;;;11.27;5.80;;;2.20;99.90;;;;;;5093573;28;20411;-78
2021/01/28 05:26:29;;;;;;;9.37;5.50;;;2.20;99.90;;;;;;5093070;28;20469;-78
2021/01/28 05:29:11;;;;;;;8.43;5.40;;;2.20;99.90;;;;;;5093065;28;21018;-79
2021/01/28 05:31:38;;;;;;;6.80;5.30;;;2.20;99.90;;;;;;5093490;28;20403;-79
2021/01/28 05:34:07;;;;;;;10.63;5.40;;;2.10;99.90;;;;;;5093367;28;20451;-78
2021/01/28 05:36:34;;;;;;;9.07;5.17;;;2.20;99.90;;;;;;5093138;28;20786;-79
2021/01/28 05:39:16;;;;;;;5.87;4.40;;;2.20;99.90;;;;;;5093241;28;20446;-79
2021/01/28 05:41:46;;;;;;;6.67;4.03;;;2.30;99.90;;;;;;5093348;28;20463;-79
2021/01/28 05:44:19;;;;;;;6.50;4.30;;;2.30;99.90;;;;;;5092977;28;20422;-79
2021/01/28 05:47:00;;;;;;;3.60;3.03;;;2.40;99.90;;;;;;5092931;28;20945;-79
2021/01/28 05:49:26;;;;;;;5.40;3.67;;;2.40;99.90;;;;;;5093273;28;20442;-79
2021/01/28 05:51:53;;;;;;;4.67;3.10;;;2.40;99.90;;;;;;5093246;28;20459;-78
2021/01/28 05:54:22;;;;;;;5.00;3.43;;;2.50;99.90;;;;;;5092881;28;20947;-78
2021/01/28 05:57:02;;;;;;;4.03;2.27;;;2.60;99.90;;;;;;5092929;28;20966;-78
2021/01/28 05:59:35;;;;;;;2.77;2.20;;;2.60;99.90;;;;;;5093120;28;20479;-78
2021/01/28 06:02:16;;;;;;;3.03;2.30;;;2.60;99.90;;;;;;5093191;28;20424;-78
2021/01/28 06:05:09;;;;;;;3.50;2.40;;;2.70;99.90;;;;;;5093165;28;20436;-78
2021/01/28 06:07:57;;;;;;;3.63;3.10;;;2.60;99.90;;;;;;5093119;28;20472;-78
2021/01/28 06:10:59;;;;;;;4.90;3.10;;;2.60;99.90;;;;;;5096844;28;20492;-78
2021/01/28 06:14:04;;;;;;;2.83;2.20;;;2.60;99.90;;;;;;5096738;28;20906;-78
2021/01/28 06:16:38;;;;;;;5.87;2.87;;;2.60;99.90;;;;;;5096938;28;20481;-78
2021/01/28 06:19:21;;;;;;;3.13;2.83;;;2.70;99.90;;;;;;5097376;28;20434;-78
2021/01/28 06:21:57;;;;;;;5.80;3.53;;;2.60;99.90;;;;;;5096906;28;20423;-78
2021/01/28 06:24:47;;;;;;;5.17;3.40;;;2.60;99.90;;;;;;5096768;28;20414;-78
2021/01/28 06:27:52;;;;;;;5.60;3.17;;;2.60;99.90;;;;;;5096316;28;20477;-78
2021/01/28 06:30:36;;;;;;;4.33;3.40;;;2.60;99.90;;;;;;5094555;28;20467;-78
2021/01/28 06:33:29;;;;;;;5.63;3.20;;;2.60;99.90;;;;;;5095055;28;20439;-78
2021/01/28 06:36:10;;;;;;;7.77;2.83;;;2.60;99.90;;;;;;5096258;28;20784;-78
2021/01/28 06:38:58;;;;;;;5.80;3.03;;;2.60;99.90;;;;;;5096226;28;20927;-78
2021/01/28 06:41:30;;;;;;;4.30;2.80;;;2.60;99.90;;;;;;5094721;28;20460;-78
2021/01/28 06:44:01;;;;;;;5.63;3.07;;;2.60;99.90;;;;;;5096495;28;20432;-77
2021/01/28 06:46:44;;;;;;;3.37;2.70;;;2.70;99.90;;;;;;5096445;28;20402;-78
2021/01/28 06:49:27;;;;;;;4.47;3.50;;;2.60;99.90;;;;;;5096212;28;20490;-77
2021/01/28 06:52:08;;;;;;;5.60;3.30;;;2.60;99.90;;;;;;5096266;28;20431;-77
2021/01/28 06:54:43;;;;;;;4.80;2.90;;;2.60;99.90;;;;;;5096264;28;20439;-77
2021/01/28 06:57:20;;;;;;;7.53;3.63;;;2.60;99.90;;;;;;5096148;28;20394;-77
2021/01/28 06:59:56;;;;;;;5.13;3.30;;;2.60;99.90;;;;;;5096027;28;20468;-77
2021/01/28 07:02:44;;;;;;;4.23;2.80;;;2.60;99.90;;;;;;5096093;28;20435;-77
2021/01/28 07:05:27;;;;;;;4.63;3.47;;;2.60;99.90;;;;;;5096015;28;20432;-77
2021/01/28 07:08:01;;;;;;;5.23;2.50;;;2.60;99.90;;;;;;5095607;28;20987;-76
2021/01/28 07:10:34;;;;;;;6.50;2.80;;;2.60;99.90;;;;;;5095553;28;20965;-75
2021/01/28 07:13:03;;;;;;;5.00;3.00;;;2.70;99.90;;;;;;5095853;28;20486;-75
2021/01/28 07:15:29;;;;;;;5.13;2.90;;;2.60;99.90;;;;;;5095822;28;20407;-75
2021/01/28 07:18:00;;;;;;;3.77;2.60;;;2.70;99.90;;;;;;5095785;28;20477;-75
2021/01/28 07:20:31;;;;;;;4.50;2.80;;;2.70;99.90;;;;;;5095274;28;20536;-75
2021/01/28 07:23:22;;;;;;;3.50;3.20;;;2.70;99.90;;;;;;5095415;28;20454;-75
2021/01/28 07:25:49;;;;;;;2.70;2.30;;;2.70;99.90;;;;;;5095415;28;20480;-75
2021/01/28 07:28:28;;;;;;;4.23;2.60;;;2.70;99.90;;;;;;5095240;28;20971;-75
2021/01/28 07:31:27;;;;;;;3.83;2.50;;;2.80;99.90;;;;;;5095449;28;20463;-75
2021/01/28 07:34:15;;;;;;;4.00;2.93;;;2.70;99.90;;;;;;5095484;28;20448;-75
2021/01/28 07:36:45;;;;;;;5.43;3.07;;;2.80;99.90;;;;;;5095436;28;20477;-75
2021/01/28 07:39:38;;;;;;;2.87;2.40;;;2.80;99.90;;;;;;5096029;28;20435;-75
2021/01/28 07:42:25;;;;;;;2.90;2.63;;;2.80;99.90;;;;;;5095284;28;20436;-75
2021/01/28 07:44:53;;;;;;;5.10;3.10;;;2.80;99.90;;;;;;5095234;28;20447;-75
2021/01/28 07:47:57;;;;;;;5.90;2.80;;;2.80;99.90;;;;;;5095175;28;20439;-75
2021/01/28 07:50:30;;;;;;;2.83;2.10;;;2.90;99.90;;;;;;5095039;28;20463;-75
2021/01/28 07:52:56;;;;;;;3.90;3.03;;;2.90;99.90;;;;;;5094778;28;20908;-75
2021/01/28 07:55:37;;;;;;;3.07;2.60;;;2.90;99.90;;;;;;5095629;28;20424;-75
2021/01/28 07:58:04;;;;;;;3.73;2.40;;;2.90;99.90;;;;;;5095022;28;20424;-76
2021/01/28 08:00:40;;;;;;;5.07;3.27;;;3.00;99.90;;;;;;5094889;28;20445;-75
2021/01/28 08:03:22;;;;;;;4.27;3.13;;;2.90;99.90;;;;;;5094908;28;20411;-75
2021/01/28 08:05:54;;;;;;;4.33;2.80;;;3.00;99.90;;;;;;5094906;28;20395;-75
2021/01/28 08:08:21;;;;;;;3.80;2.63;;;3.00;99.90;;;;;;5094729;28;20471;-75
2021/01/28 08:10:47;;;;;;;5.83;2.87;;;2.90;99.90;;;;;;5094702;28;20468;-75
2021/01/28 08:13:21;;;;;;;4.57;2.83;;;2.90;99.90;;;;;;5094732;28;20432;-75
2021/01/28 08:15:53;;;;;;;7.10;3.40;;;2.80;99.90;;;;;;5095043;28;20418;-75
2021/01/28 08:18:22;;;;;;;4.87;3.60;;;2.80;99.90;;;;;;5094841;28;20485;-75
2021/01/28 08:20:49;;;;;;;3.80;3.03;;;2.80;99.90;;;;;;5094523;28;20442;-75
2021/01/28 08:23:18;;;;;;;5.80;3.57;;;2.90;99.90;;;;;;5094606;28;20428;-75
2021/01/28 08:25:53;;;;;;;4.37;2.90;;;2.90;99.90;;;;;;5094261;28;20482;-75
2021/01/28 08:28:19;;;;;;;5.43;3.23;;;2.90;99.90;;;;;;5094383;28;20474;-75
2021/01/28 08:30:46;;;;;;;4.10;2.70;;;2.90;99.90;;;;;;5093966;28;20474;-75
2021/01/28 08:33:23;;;;;;;3.40;2.83;;;3.00;99.90;;;;;;5093431;28;20445;-75
2021/01/28 08:35:52;;;;;;;4.23;3.30;;;3.10;99.90;;;;;;5093131;28;20502;-75
2021/01/28 08:38:23;;;;;;;7.70;2.33;;;3.00;99.90;;;;;;5094281;28;20425;-75
2021/01/28 08:41:03;;;;;;;3.17;2.67;;;3.10;99.90;;;;;;5094157;28;20497;-75
2021/01/28 08:43:29;;;;;;;3.30;2.03;;;3.20;99.90;;;;;;5094152;28;20407;-75
2021/01/28 08:46:05;;;;;;;4.10;2.97;;;3.20;99.90;;;;;;5094105;28;20468;-75
2021/01/28 08:48:31;;;;;;;3.03;2.53;;;3.10;99.90;;;;;;5093960;28;20468;-75
2021/01/28 08:51:10;;;;;;;3.30;2.70;;;3.20;99.90;;;;;;5093973;28;20479;-75
2021/01/28 08:53:37;;;;;;;5.43;2.30;;;3.20;99.90;;;;;;5093741;28;20889;-75
2021/01/28 08:56:08;;;;;;;4.10;2.33;;;3.20;99.90;;;;;;5093860;28;20411;-75
2021/01/28 08:58:40;;;;;;;3.30;2.30;;;3.20;99.90;;;;;;5093533;28;20874;-75
2021/01/28 09:01:07;;;;;;;3.13;1.97;;;3.20;99.90;;;;;;5093876;28;20409;-76
2021/01/28 09:03:39;;;;;;;2.10;1.80;;;3.20;99.90;;;;;;5093873;28;20763;-75
2021/01/28 09:06:07;;;;;;;3.77;1.80;;;3.20;99.90;;;;;;5093767;28;20514;-75
2021/01/28 09:08:35;;;;;;;4.60;2.03;;;3.20;99.90;;;;;;5093352;28;20442;-75
2021/01/28 09:11:18;;;;;;;1.70;1.60;;;3.30;99.90;;;;;;5093729;28;20442;-75
2021/01/28 09:14:13;;;;;;;3.60;1.67;;;3.40;99.90;;;;;;5093754;28;20424;-75
2021/01/28 09:16:40;;;;;;;2.80;1.20;;;3.40;99.90;;;;;;5093707;28;20485;-76
2021/01/28 09:19:10;;;;;;;3.57;1.30;;;3.40;99.90;;;;;;5093527;28;20489;-76
2021/01/28 09:21:40;;;;;;;1.40;1.20;;;3.50;99.90;;;;;;5093631;28;20428;-75
2021/01/28 09:24:17;;;;;;;1.97;1.50;;;3.50;99.90;;;;;;5093506;28;20443;-76
2021/01/28 09:26:44;;;;;;;1.40;1.30;;;3.60;99.90;;;;;;5093235;28;20474;-75
2021/01/28 09:29:16;;;;;;;1.40;1.20;;;3.60;99.90;;;;;;5093220;28;20491;-75
2021/01/28 09:31:42;;;;;;;5.53;1.70;;;3.70;99.90;;;;;;5093480;28;20429;-76
2021/01/28 09:34:14;;;;;;;1.20;1.10;;;3.80;99.90;;;;;;5093467;28;20383;-75
2021/01/28 09:36:42;;;;;;;1.70;1.50;;;3.80;99.90;;;;;;5093407;28;20428;-75
2021/01/28 09:39:20;;;;;;;1.70;1.37;;;3.90;99.90;;;;;;5093156;28;20468;-75
2021/01/28 09:41:50;;;;;;;1.50;1.30;;;4.00;99.90;;;;;;5093411;28;20408;-75
2021/01/28 09:44:35;;;;;;;1.77;1.37;;;4.00;99.90;;;;;;5097259;28;20437;-75
2021/01/28 09:47:10;;;;;;;4.40;1.40;;;4.00;99.90;;;;;;5097173;28;20432;-75
2021/01/28 09:49:36;;;;;;;1.83;1.27;;;4.00;99.90;;;;;;5097092;28;20455;-75
2021/01/28 09:52:04;;;;;;;1.60;1.37;;;4.00;99.90;;;;;;5100400;28;20424;-82
2021/01/28 09:54:33;;;;;;;1.47;1.37;;;4.00;99.90;;;;;;5098640;28;20428;-86
2021/01/28 09:57:01;;;;;;;1.50;1.10;;;4.10;99.90;;;;;;5097583;28;20442;-81
2021/01/28 09:59:27;;;;;;;2.80;1.50;;;4.00;99.90;;;;;;5097164;28;20497;-80
2021/01/28 10:01:53;;;;;;;1.30;1.10;;;4.00;99.90;;;;;;5096977;28;20435;-80
2021/01/28 10:04:19;;;;;;;1.83;1.67;;;4.00;99.90;;;;;;5096927;28;20964;-80
2021/01/28 10:06:45;;;;;;;1.60;1.30;;;4.00;99.90;;;;;;5097557;28;20457;-81
2021/01/28 10:09:13;;;;;;;2.50;1.13;;;4.00;99.90;;;;;;5096994;28;20549;-80
2021/01/28 10:11:39;;;;;;;3.23;1.47;;;4.10;99.90;;;;;;5097134;28;20443;-80
2021/01/28 10:14:05;;;;;;;1.53;1.13;;;4.20;99.90;;;;;;5097060;28;20428;-80
2021/01/28 10:16:32;;;;;;;1.23;1.20;;;4.20;99.90;;;;;;5097108;28;20482;-80
2021/01/28 10:18:59;;;;;;;0.90;0.90;;;4.30;99.90;;;;;;5096717;28;20852;-80
2021/01/28 10:21:25;;;;;;;1.10;1.07;;;4.30;99.90;;;;;;5096640;28;20828;-80
2021/01/28 10:23:52;;;;;;;1.03;1.03;;;4.30;99.90;;;;;;5096583;28;20432;-80
2021/01/28 10:26:19;;;;;;;1.40;1.23;;;4.30;99.90;;;;;;5096342;28;20471;-80
2021/01/28 10:28:45;;;;;;;1.17;1.00;;;4.40;99.90;;;;;;5096542;28;20475;-80
2021/01/28 10:31:11;;;;;;;2.60;1.27;;;4.50;99.90;;;;;;5096690;28;20833;-81
2021/01/28 10:33:38;;;;;;;1.00;0.90;;;4.50;99.90;;;;;;5096692;28;20797;-80
2021/01/28 10:36:06;;;;;;;1.17;0.80;;;4.50;99.90;;;;;;5096350;28;20933;-81
2021/01/28 10:38:32;;;;;;;1.37;1.10;;;4.50;99.90;;;;;;5096576;28;20424;-82
2021/01/28 10:40:59;;;;;;;1.30;1.00;;;4.50;99.90;;;;;;5096558;28;20489;-82
2021/01/28 10:43:26;;;;;;;1.17;1.17;;;4.50;99.90;;;;;;5096513;28;20477;-82
2021/01/28 10:45:52;;;;;;;1.83;1.20;;;4.60;99.90;;;;;;5096505;28;20428;-82
2021/01/28 10:48:20;;;;;;;1.00;1.00;;;4.60;99.90;;;;;;5096367;28;20468;-82
2021/01/28 10:50:47;;;;;;;0.90;0.90;;;4.70;99.90;;;;;;5096044;28;20467;-82
2021/01/28 10:53:13;;;;;;;1.17;1.07;;;4.70;99.90;;;;;;5096303;28;20436;-82
2021/01/28 10:55:39;;;;;;;2.10;1.13;;;4.70;99.90;;;;;;5095513;28;20435;-80
2021/01/28 10:58:06;;;;;;;2.00;1.10;;;4.80;99.90;;;;;;5096226;28;20416;-82
2021/01/28 11:00:33;;;;;;;1.37;1.27;;;4.80;99.90;;;;;;5096139;28;20471;-82
2021/01/28 11:03:00;;;;;;;1.13;1.00;;;4.90;99.90;;;;;;5095875;28;20470;-82
2021/01/28 11:05:29;;;;;;;1.40;0.93;;;5.10;99.90;;;;;;5096026;28;20482;-82
2021/01/28 11:07:55;;;;;;;1.83;1.60;;;5.20;99.90;;;;;;5095942;28;20464;-82
2021/01/28 11:10:23;;;;;;;1.23;1.10;;;5.20;99.90;;;;;;5095933;28;20463;-82
2021/01/28 11:12:49;;;;;;;2.80;1.17;;;5.20;99.90;;;;;;5096020;28;20439;-82
2021/01/28 11:15:16;;;;;;;1.30;1.13;;;5.20;99.90;;;;;;5095925;28;20428;-82
2021/01/28 11:17:43;;;;;;;1.47;1.30;;;5.20;99.90;;;;;;5095846;28;20429;-82
2021/01/28 11:20:12;;;;;;;1.53;1.20;;;5.20;99.90;;;;;;5095543;28;20434;-82
2021/01/28 11:22:38;;;;;;;1.10;1.00;;;5.20;99.90;;;;;;5096361;28;20436;-82
2021/01/28 11:25:08;;;;;;;1.00;1.00;;;5.10;99.90;;;;;;5095722;28;20545;-82
2021/01/28 11:27:34;;;;;;;1.50;1.40;;;5.10;99.90;;;;;;5095315;28;20475;-82
2021/01/28 11:30:00;;;;;;;1.30;1.20;;;5.10;99.90;;;;;;5095486;28;20464;-82
2021/01/28 11:32:27;;;;;;;1.33;1.23;;;5.00;99.90;;;;;;5095591;28;20439;-82
2021/01/28 11:34:54;;;;;;;1.23;1.13;;;5.00;99.90;;;;;;5095492;28;20432;-82
2021/01/28 11:37:22;;;;;;;1.23;1.13;;;5.00;99.90;;;;;;5095449;28;20432;-82
2021/01/28 11:39:49;;;;;;;1.50;1.40;;;5.00;99.90;;;;;;5095382;28;20943;-82
2021/01/28 11:42:16;;;;;;;1.83;1.60;;;5.10;99.90;;;;;;5095921;28;20588;-82
2021/01/28 11:44:43;;;;;;;1.60;1.50;;;5.40;99.90;;;;;;5095031;28;20443;-82
2021/01/28 11:47:09;;;;;;;1.57;1.47;;;5.60;99.90;;;;;;5095328;28;20826;-82
2021/01/28 11:49:35;;;;;;;1.27;1.20;;;5.90;99.90;;;;;;5095288;28;20486;-82
2021/01/28 11:52:03;;;;;;;1.30;1.20;;;6.10;99.90;;;;;;5095313;28;20503;-82
2021/01/28 11:54:29;;;;;;;1.50;1.40;;;6.20;99.90;;;;;;5095118;28;20428;-82
2021/01/28 11:56:55;;;;;;;0.90;0.90;;;6.30;99.90;;;;;;5095094;28;20424;-82
2021/01/28 11:59:22;;;;;;;1.40;1.27;;;6.40;99.90;;;;;;5094600;28;20475;-82
2021/01/28 12:01:48;;;;;;;0.90;0.87;;;6.50;99.90;;;;;;5094890;28;20431;-82
2021/01/28 12:04:14;;;;;;;1.67;0.90;;;6.50;99.90;;;;;;5095728;28;20424;-82
2021/01/28 12:06:41;;;;;;;1.23;0.90;;;6.40;99.90;;;;;;5093712;28;20432;-82
2021/01/28 12:09:08;;;;;;;1.10;1.10;;;6.50;99.90;;;;;;5094669;28;20488;-82
2021/01/28 12:11:34;;;;;;;1.10;1.10;;;6.70;99.90;;;;;;5094797;28;20424;-82
2021/01/28 12:14:01;;;;;;;0.80;0.80;;;6.90;99.90;;;;;;5094738;28;20790;-86
2021/01/28 12:16:28;;;;;;;0.90;0.70;;;7.00;99.90;;;;;;5094768;28;20862;-83
2021/01/28 12:18:54;;;;;;;0.97;0.97;;;7.10;99.90;;;;;;5094594;28;20868;-82
2021/01/28 12:21:20;;;;;;;0.70;0.70;;;7.40;99.90;;;;;;5094573;28;20440;-82
2021/01/28 12:23:46;;;;;;;0.60;0.60;;;7.50;99.90;;;;;;5094282;28;20428;-82
2021/01/28 12:26:14;;;;;;;0.60;0.60;;;7.60;99.90;;;;;;5094214;28;20472;-82
2021/01/28 12:28:40;;;;;;;0.70;0.70;;;7.70;99.90;;;;;;5094208;28;20490;-82
2021/01/28 12:31:06;;;;;;;0.80;0.80;;;7.70;99.90;;;;;;5094428;28;20428;-83
2021/01/28 12:33:33;;;;;;;1.27;0.80;;;7.70;99.90;;;;;;5094382;28;20436;-83
2021/01/28 12:36:00;;;;;;;0.50;0.50;;;7.70;99.90;;;;;;5094968;28;20433;-84
2021/01/28 12:38:26;;;;;;;0.50;0.50;;;7.70;99.90;;;;;;5094303;28;20425;-83
2021/01/28 12:40:52;;;;;;;1.10;0.50;;;7.70;99.90;;;;;;5093908;28;21012;-83
2021/01/28 12:43:19;;;;;;;1.43;0.50;;;7.70;99.90;;;;;;5094171;28;20435;-83
2021/01/28 12:45:46;;;;;;;0.60;0.60;;;7.80;99.90;;;;;;5094163;28;20447;-82
2021/01/28 12:48:12;;;;;;;0.60;0.60;;;7.90;99.90;;;;;;5093779;28;20491;-83
2021/01/28 12:50:38;;;;;;;0.50;0.50;;;7.90;99.90;;;;;;5094148;28;20464;-82
2021/01/28 12:53:04;;;;;;;0.50;0.50;;;7.90;99.90;;;;;;5093974;28;20416;-83
2021/01/28 12:55:30;;;;;;;0.83;0.60;;;7.90;99.90;;;;;;5094033;28;20424;-83
2021/01/28 12:57:57;;;;;;;0.60;0.53;;;7.90;99.90;;;;;;5093683;28;20424;-83
2021/01/28 13:00:27;;;;;;;1.10;0.50;;;7.80;99.90;;;;;;5093830;28;20464;-83
2021/01/28 13:02:53;;;;;;;0.50;0.50;;;7.70;99.90;;;;;;5093885;28;20444;-82
2021/01/28 13:05:20;;;;;;;0.63;0.50;;;7.60;99.90;;;;;;5093917;28;20498;-83
2021/01/28 13:07:46;;;;;;;0.50;0.50;;;7.60;99.90;;;;;;5093693;28;20436;-82
2021/01/28 13:10:14;;;;;;;0.60;0.60;;;7.70;99.90;;;;;;5093726;28;20513;-83